createdAt,value
2017-08-31T00:00:24.588Z,8.50
2017-08-31T00:02:52.124Z,8.23
2017-08-31T00:05:19.632Z,8.33
2017-08-31T00:07:47.181Z,10.20
2017-08-31T00:10:14.799Z,8.60
2017-08-31T00:12:42.333Z,8.53
2017-08-31T00:15:09.844Z,9.53
2017-08-31T00:17:37.413Z,14.10
2017-08-31T00:20:04.929Z,9.20
2017-08-31T00:22:32.438Z,9.00
2017-08-31T00:24:59.964Z,9.60
2017-08-31T00:27:27.478Z,9.73
2017-08-31T00:29:55.004Z,9.90
2017-08-31T00:32:22.512Z,11.77
2017-08-31T00:34:50.049Z,10.33
2017-08-31T00:37:17.560Z,10.03
2017-08-31T00:39:45.102Z,11.10
2017-08-31T00:42:12.608Z,10.70
2017-08-31T00:44:40.156Z,10.80
2017-08-31T00:47:07.685Z,11.60
2017-08-31T00:49:35.221Z,12.53
2017-08-31T00:52:02.743Z,11.57
2017-08-31T00:54:30.275Z,11.90
2017-08-31T00:56:57.792Z,11.10
2017-08-31T00:59:25.333Z,10.70
2017-08-31T01:01:52.839Z,10.97
2017-08-31T01:04:20.373Z,10.90
2017-08-31T01:06:47.891Z,9.93
2017-08-31T01:09:15.432Z,15.40
2017-08-31T01:11:42.946Z,10.87
2017-08-31T01:14:11.173Z,12.20
2017-08-31T01:16:38.688Z,11.53
2017-08-31T01:19:06.237Z,14.40
2017-08-31T01:21:33.756Z,11.20
2017-08-31T01:24:01.275Z,9.83
2017-08-31T01:26:28.808Z,10.73
2017-08-31T01:28:56.519Z,10.50
2017-08-31T01:31:24.068Z,9.50
2017-08-31T01:33:51.718Z,11.37
2017-08-31T01:36:19.256Z,10.70
2017-08-31T01:38:46.781Z,11.97
2017-08-31T01:41:14.312Z,9.80
2017-08-31T01:43:41.915Z,8.00
2017-08-31T01:46:09.457Z,8.77
2017-08-31T01:48:36.978Z,11.63
2017-08-31T01:51:04.504Z,10.70
2017-08-31T01:53:32.022Z,10.43
2017-08-31T01:55:59.566Z,8.63
2017-08-31T01:58:27.082Z,8.43
2017-08-31T02:00:54.617Z,8.87
2017-08-31T02:03:22.133Z,8.47
2017-08-31T02:05:49.672Z,8.67
2017-08-31T02:08:17.183Z,8.40
2017-08-31T02:10:44.747Z,8.53
2017-08-31T02:13:12.682Z,7.57
2017-08-31T02:15:40.216Z,7.50
2017-08-31T02:18:07.748Z,7.47
2017-08-31T02:20:35.293Z,8.77
2017-08-31T02:23:02.813Z,8.20
2017-08-31T02:25:30.323Z,7.70
2017-08-31T02:27:57.844Z,8.00
2017-08-31T02:30:25.348Z,8.07
2017-08-31T02:32:52.891Z,8.00
2017-08-31T02:35:20.436Z,10.13
2017-08-31T02:37:47.970Z,7.27
2017-08-31T02:40:15.472Z,8.13
2017-08-31T02:42:43.004Z,8.73
2017-08-31T02:45:10.512Z,7.43
2017-08-31T02:47:38.046Z,6.73
2017-08-31T02:50:05.565Z,7.47
2017-08-31T02:52:33.096Z,7.47
2017-08-31T02:55:00.605Z,7.27
2017-08-31T02:57:28.138Z,7.70
2017-08-31T02:59:55.682Z,7.43
2017-08-31T03:02:23.206Z,7.00
2017-08-31T03:04:50.732Z,7.17
2017-08-31T03:07:18.273Z,7.30
2017-08-31T03:09:45.785Z,7.33
2017-08-31T03:12:13.310Z,8.20
2017-08-31T03:14:40.933Z,6.03
2017-08-31T03:17:08.460Z,7.03
2017-08-31T03:19:35.970Z,6.30
2017-08-31T03:22:03.495Z,7.63
2017-08-31T03:24:31.004Z,6.27
2017-08-31T03:26:58.517Z,6.97
2017-08-31T03:29:26.041Z,7.13
2017-08-31T03:31:53.570Z,6.33
2017-08-31T03:34:21.310Z,6.80
2017-08-31T03:36:48.889Z,7.40
2017-08-31T03:39:16.422Z,7.27
2017-08-31T03:41:43.942Z,7.97
2017-08-31T03:44:11.500Z,7.50
2017-08-31T03:46:39.020Z,7.50
2017-08-31T03:49:06.569Z,7.77
2017-08-31T03:51:34.086Z,12.43
2017-08-31T03:54:01.621Z,8.13
2017-08-31T03:56:29.141Z,9.30
2017-08-31T03:58:56.681Z,8.70
2017-08-31T04:01:24.253Z,8.87
2017-08-31T04:03:51.806Z,7.50
2017-08-31T04:06:19.326Z,8.17
2017-08-31T04:08:46.873Z,8.13
2017-08-31T04:11:14.385Z,8.73
2017-08-31T04:13:41.923Z,8.50
2017-08-31T04:16:09.454Z,9.23
2017-08-31T04:18:37.378Z,8.27
2017-08-31T04:21:04.893Z,10.63
2017-08-31T04:23:32.440Z,8.50
2017-08-31T04:25:59.957Z,8.17
2017-08-31T04:28:27.493Z,10.40
2017-08-31T04:30:55.017Z,9.00
2017-08-31T04:33:22.524Z,8.73
2017-08-31T04:35:50.055Z,8.33
2017-08-31T04:38:17.567Z,9.70
2017-08-31T04:40:45.096Z,8.00
2017-08-31T04:43:12.619Z,9.07
2017-08-31T04:45:40.153Z,8.67
2017-08-31T04:48:07.659Z,8.13
2017-08-31T04:50:35.194Z,8.50
2017-08-31T04:53:02.700Z,9.23
2017-08-31T04:55:30.230Z,8.13
2017-08-31T04:57:57.748Z,7.77
2017-08-31T05:00:25.281Z,7.67
2017-08-31T05:02:52.808Z,8.70
2017-08-31T05:05:20.337Z,8.70
2017-08-31T05:07:47.845Z,8.87
2017-08-31T05:10:15.377Z,8.13
2017-08-31T05:12:42.893Z,8.20
2017-08-31T05:15:10.420Z,6.97
2017-08-31T05:17:37.937Z,8.93
2017-08-31T05:20:05.477Z,9.23
2017-08-31T05:22:32.992Z,8.60
2017-08-31T05:25:00.533Z,8.33
2017-08-31T05:27:28.048Z,9.17
2017-08-31T05:29:55.613Z,8.00
2017-08-31T05:32:23.161Z,10.23
2017-08-31T05:34:50.674Z,9.60
2017-08-31T05:37:18.205Z,9.40
2017-08-31T05:39:45.759Z,9.27
2017-08-31T05:42:13.316Z,9.87
2017-08-31T05:44:40.871Z,10.40
2017-08-31T05:47:08.424Z,10.57
2017-08-31T05:49:36.010Z,10.60
2017-08-31T05:52:03.536Z,10.17
2017-08-31T05:54:31.084Z,11.10
2017-08-31T05:56:58.605Z,12.10
2017-08-31T05:59:26.166Z,11.23
2017-08-31T06:01:53.676Z,11.10
2017-08-31T06:04:21.232Z,11.70
2017-08-31T06:06:48.756Z,12.70
2017-08-31T06:09:16.276Z,11.63
2017-08-31T06:11:43.809Z,12.90
2017-08-31T06:14:11.332Z,12.37
2017-08-31T06:16:38.889Z,11.63
2017-08-31T06:19:06.419Z,12.93
2017-08-31T06:21:33.958Z,11.60
2017-08-31T06:24:01.490Z,11.73
2017-08-31T06:26:29.037Z,13.13
2017-08-31T06:28:56.546Z,12.53
2017-08-31T06:31:24.861Z,14.10
2017-08-31T06:33:52.480Z,11.70
2017-08-31T06:36:20.076Z,12.70
2017-08-31T06:38:47.640Z,12.60
2017-08-31T06:41:15.149Z,11.50
2017-08-31T06:43:42.699Z,14.50
2017-08-31T06:46:10.215Z,11.47
2017-08-31T06:48:37.779Z,13.50
2017-08-31T06:51:05.284Z,9.67
2017-08-31T06:53:32.809Z,9.80
2017-08-31T06:56:00.314Z,10.87
2017-08-31T06:58:27.849Z,11.57
2017-08-31T07:00:55.383Z,9.00
2017-08-31T07:03:22.918Z,9.93
2017-08-31T07:05:50.447Z,9.20
2017-08-31T07:08:17.955Z,11.00
2017-08-31T07:10:45.488Z,9.50
2017-08-31T07:13:12.997Z,8.30
2017-08-31T07:15:40.528Z,8.07
2017-08-31T07:18:08.037Z,7.43
2017-08-31T07:20:35.563Z,7.40
2017-08-31T07:23:03.073Z,8.00
2017-08-31T07:25:30.620Z,24.10
2017-08-31T07:27:58.129Z,14.87
2017-08-31T07:30:25.663Z,7.70
2017-08-31T07:32:53.251Z,15.90
2017-08-31T07:35:20.765Z,7.40
2017-08-31T07:37:48.273Z,10.30
2017-08-31T07:40:15.818Z,10.30
2017-08-31T07:42:43.334Z,7.70
2017-08-31T07:45:10.868Z,7.60
2017-08-31T07:47:38.422Z,9.80
2017-08-31T07:50:05.933Z,10.67
2017-08-31T07:52:33.499Z,11.37
2017-08-31T07:55:01.011Z,9.70
2017-08-31T07:57:28.518Z,10.57
2017-08-31T07:59:56.075Z,10.37
2017-08-31T08:02:23.597Z,10.80
2017-08-31T08:04:51.134Z,12.00
2017-08-31T08:07:18.664Z,13.83
2017-08-31T08:09:46.316Z,11.43
2017-08-31T08:12:13.839Z,13.33
2017-08-31T08:14:41.392Z,12.13
2017-08-31T08:17:08.904Z,12.00
2017-08-31T08:19:36.443Z,9.63
2017-08-31T08:22:03.957Z,9.47
2017-08-31T08:24:31.492Z,7.57
2017-08-31T08:26:59.007Z,8.00
2017-08-31T08:29:26.585Z,8.73
2017-08-31T08:31:54.108Z,8.07
2017-08-31T08:34:21.849Z,7.47
2017-08-31T08:36:49.398Z,6.83
2017-08-31T08:39:16.922Z,6.97
2017-08-31T08:41:44.458Z,7.20
2017-08-31T08:44:11.965Z,5.90
2017-08-31T08:46:39.487Z,6.00
2017-08-31T08:49:07.016Z,7.73
2017-08-31T08:51:34.583Z,11.10
2017-08-31T08:54:02.109Z,6.47
2017-08-31T08:56:29.633Z,6.93
2017-08-31T08:58:57.153Z,6.07
2017-08-31T09:01:24.677Z,6.53
2017-08-31T09:03:52.181Z,7.37
2017-08-31T09:06:20.480Z,5.17
2017-08-31T09:08:49.283Z,5.37
2017-08-31T09:11:16.818Z,6.23
2017-08-31T09:13:44.341Z,7.40
2017-08-31T09:16:11.869Z,6.27
2017-08-31T09:18:39.382Z,5.93
2017-08-31T09:21:06.913Z,5.80
2017-08-31T09:23:34.432Z,7.43
2017-08-31T09:26:01.988Z,5.77
2017-08-31T09:28:29.505Z,8.07
2017-08-31T09:30:57.030Z,6.10
2017-08-31T09:33:24.542Z,7.03
2017-08-31T09:35:52.065Z,7.53
2017-08-31T09:38:20.570Z,6.47
2017-08-31T09:40:48.085Z,7.60
2017-08-31T09:43:15.615Z,5.80
2017-08-31T09:45:43.128Z,12.90
2017-08-31T09:48:10.656Z,5.50
2017-08-31T09:50:38.163Z,6.57
2017-08-31T09:53:05.694Z,5.97
2017-08-31T09:55:33.204Z,6.00
2017-08-31T09:58:00.745Z,5.80
2017-08-31T10:00:28.248Z,6.10
2017-08-31T10:02:55.783Z,5.90
2017-08-31T10:05:23.291Z,6.23
2017-08-31T10:07:50.823Z,5.37
2017-08-31T10:10:18.337Z,6.33
2017-08-31T10:12:45.869Z,5.80
2017-08-31T10:15:13.391Z,9.03
2017-08-31T10:17:40.921Z,4.93
2017-08-31T10:20:08.449Z,6.73
2017-08-31T10:22:35.980Z,7.97
2017-08-31T10:25:03.489Z,5.10
2017-08-31T10:27:31.010Z,5.90
2017-08-31T10:29:58.510Z,4.90
2017-08-31T10:32:26.040Z,4.80
2017-08-31T10:34:53.557Z,3.57
2017-08-31T10:37:21.099Z,3.53
2017-08-31T10:39:48.612Z,5.30
2017-08-31T10:42:16.118Z,3.10
2017-08-31T10:44:43.650Z,3.30
2017-08-31T10:47:11.186Z,6.10
2017-08-31T10:49:38.721Z,3.20
2017-08-31T10:52:06.227Z,3.67
2017-08-31T10:54:33.779Z,2.93
2017-08-31T10:57:01.280Z,2.50
2017-08-31T10:59:28.804Z,3.07
2017-08-31T11:01:56.325Z,6.83
2017-08-31T11:04:23.851Z,2.63
2017-08-31T11:06:51.360Z,3.43
2017-08-31T11:09:18.888Z,2.40
2017-08-31T11:11:46.397Z,3.10
2017-08-31T11:14:14.527Z,4.97
2017-08-31T11:16:42.037Z,4.67
2017-08-31T11:19:09.666Z,5.47
2017-08-31T11:21:37.205Z,4.80
2017-08-31T11:24:04.707Z,3.00
2017-08-31T11:26:32.237Z,3.03
2017-08-31T11:28:59.983Z,3.63
2017-08-31T11:31:27.505Z,5.43
2017-08-31T11:33:54.956Z,4.30
2017-08-31T11:36:22.659Z,5.00
2017-08-31T11:38:50.008Z,9.70
2017-08-31T11:41:17.515Z,4.90
2017-08-31T11:43:45.047Z,5.80
2017-08-31T11:46:12.553Z,5.70
2017-08-31T11:48:40.087Z,4.10
2017-08-31T11:51:07.608Z,5.97
2017-08-31T11:53:35.142Z,3.93
2017-08-31T11:56:02.648Z,5.40
2017-08-31T11:58:30.176Z,4.40
2017-08-31T12:00:57.691Z,7.40
2017-08-31T12:03:25.235Z,7.63
2017-08-31T12:05:52.754Z,5.73
2017-08-31T12:08:20.271Z,5.00
2017-08-31T12:10:47.813Z,4.10
2017-08-31T12:13:15.329Z,5.03
2017-08-31T12:15:42.859Z,4.20
2017-08-31T12:18:10.768Z,4.47
2017-08-31T12:20:38.300Z,5.20
2017-08-31T12:23:05.818Z,5.70
2017-08-31T12:25:33.356Z,5.27
2017-08-31T12:28:00.870Z,5.20
2017-08-31T12:30:28.392Z,3.70
2017-08-31T12:32:56.677Z,3.93
2017-08-31T12:35:24.217Z,5.57
2017-08-31T12:37:51.740Z,4.17
2017-08-31T12:40:20.149Z,3.53
2017-08-31T12:42:47.682Z,4.17
2017-08-31T12:45:15.200Z,4.40
2017-08-31T12:47:42.740Z,4.07
2017-08-31T12:50:10.253Z,5.20
2017-08-31T12:52:37.780Z,3.60
2017-08-31T12:55:05.294Z,3.40
2017-08-31T12:57:32.844Z,3.23
2017-08-31T13:00:00.354Z,4.90
2017-08-31T13:02:27.881Z,3.77
2017-08-31T13:04:55.404Z,3.57
2017-08-31T13:07:22.940Z,3.90
2017-08-31T13:09:50.505Z,3.30
2017-08-31T13:12:18.028Z,3.60
2017-08-31T13:14:45.552Z,2.80
2017-08-31T13:17:13.085Z,3.47
2017-08-31T13:19:40.605Z,2.43
2017-08-31T13:22:08.140Z,2.70
2017-08-31T13:24:35.666Z,3.20
2017-08-31T13:27:03.193Z,2.47
2017-08-31T13:29:30.768Z,5.63
2017-08-31T13:31:58.284Z,2.70
2017-08-31T13:34:25.801Z,3.23
2017-08-31T13:36:56.882Z,2.00
2017-08-31T13:39:24.417Z,2.70
2017-08-31T13:41:51.958Z,3.70
2017-08-31T13:44:19.470Z,3.50
2017-08-31T13:46:47.005Z,2.90
2017-08-31T13:49:14.716Z,2.40
2017-08-31T13:51:42.256Z,3.20
2017-08-31T13:54:09.768Z,5.33
2017-08-31T13:56:37.312Z,4.50
2017-08-31T13:59:04.846Z,2.37
2017-08-31T14:01:32.352Z,3.73
2017-08-31T14:03:59.886Z,3.87
2017-08-31T14:06:27.392Z,2.30
2017-08-31T14:08:54.927Z,2.70
2017-08-31T14:11:22.440Z,3.07
2017-08-31T14:13:49.973Z,3.20
2017-08-31T14:16:17.480Z,3.20
2017-08-31T14:18:45.036Z,3.27
2017-08-31T14:21:12.552Z,3.20
2017-08-31T14:23:40.110Z,2.63
2017-08-31T14:26:07.623Z,2.60
2017-08-31T14:28:35.180Z,4.03
2017-08-31T14:31:02.692Z,3.47
2017-08-31T14:33:30.229Z,3.87
2017-08-31T14:35:57.756Z,2.70
2017-08-31T14:38:25.284Z,3.20
2017-08-31T14:40:52.796Z,3.20
2017-08-31T14:43:20.324Z,3.03
2017-08-31T14:45:47.844Z,2.80
2017-08-31T14:48:15.376Z,3.10
2017-08-31T14:50:42.889Z,2.83
2017-08-31T14:53:10.443Z,3.20
2017-08-31T14:55:38.004Z,2.90
2017-08-31T14:58:05.530Z,2.27
2017-08-31T15:00:33.042Z,2.07
2017-08-31T15:03:00.585Z,2.60
2017-08-31T15:05:28.101Z,2.20
2017-08-31T15:07:55.628Z,2.13
2017-08-31T15:10:23.140Z,2.80
2017-08-31T15:12:50.671Z,2.33
2017-08-31T15:15:18.229Z,3.27
2017-08-31T15:17:45.750Z,2.97
2017-08-31T15:20:13.274Z,2.63
2017-08-31T15:22:40.793Z,2.13
2017-08-31T15:25:08.324Z,1.97
2017-08-31T15:27:35.871Z,1.97
2017-08-31T15:30:03.411Z,2.00
2017-08-31T15:32:30.926Z,2.30
2017-08-31T15:34:58.459Z,2.00
2017-08-31T15:37:25.968Z,1.60
2017-08-31T15:39:53.509Z,2.13
2017-08-31T15:42:21.021Z,2.00
2017-08-31T15:44:48.570Z,2.00
2017-08-31T15:47:16.076Z,2.20
2017-08-31T15:49:43.609Z,1.90
2017-08-31T15:52:11.118Z,1.93
2017-08-31T15:54:38.626Z,1.90
2017-08-31T15:57:06.160Z,1.70
2017-08-31T15:59:33.668Z,2.40
2017-08-31T16:02:01.192Z,1.70
2017-08-31T16:04:32.207Z,1.87
2017-08-31T16:06:59.726Z,2.40
2017-08-31T16:09:27.255Z,1.93
2017-08-31T16:11:54.780Z,1.83
2017-08-31T16:14:22.352Z,2.13
2017-08-31T16:16:49.896Z,2.20
2017-08-31T16:19:17.416Z,2.30
2017-08-31T16:21:44.950Z,1.70
2017-08-31T16:24:12.510Z,1.93
2017-08-31T16:26:40.039Z,2.20
2017-08-31T16:29:07.548Z,2.67
2017-08-31T16:31:35.090Z,2.20
2017-08-31T16:34:02.601Z,2.20
2017-08-31T16:36:30.136Z,3.43
2017-08-31T16:38:57.657Z,2.53
2017-08-31T16:41:25.205Z,2.70
2017-08-31T16:43:52.712Z,2.53
2017-08-31T16:46:20.220Z,3.23
2017-08-31T16:48:47.757Z,2.17
2017-08-31T16:51:15.265Z,2.87
2017-08-31T16:53:42.816Z,2.83
2017-08-31T16:56:10.347Z,2.77
2017-08-31T16:58:37.955Z,2.93
2017-08-31T17:01:05.466Z,2.60
2017-08-31T17:03:33.005Z,2.70
2017-08-31T17:06:00.521Z,3.90
2017-08-31T17:08:28.051Z,3.03
2017-08-31T17:10:55.556Z,3.30
2017-08-31T17:13:23.087Z,3.60
2017-08-31T17:15:56.800Z,3.50
2017-08-31T17:18:24.322Z,4.30
2017-08-31T17:20:51.847Z,3.33
2017-08-31T17:23:19.380Z,3.93
2017-08-31T17:25:46.910Z,3.97
2017-08-31T17:28:15.358Z,4.43
2017-08-31T17:30:43.122Z,3.30
2017-08-31T17:33:10.652Z,2.97
2017-08-31T17:35:38.155Z,2.93
2017-08-31T17:38:05.708Z,4.83
2017-08-31T17:40:33.225Z,3.77
2017-08-31T17:43:00.767Z,3.23
2017-08-31T17:45:28.285Z,3.60
2017-08-31T17:47:55.815Z,3.77
2017-08-31T17:50:23.328Z,3.60
2017-08-31T17:52:50.872Z,4.07
2017-08-31T17:55:18.405Z,4.03
2017-08-31T17:57:45.999Z,5.07
2017-08-31T18:00:13.521Z,3.90
2017-08-31T18:02:41.052Z,4.27
2017-08-31T18:05:08.611Z,4.33
2017-08-31T18:07:36.207Z,4.40
2017-08-31T18:10:03.732Z,4.00
2017-08-31T18:12:31.242Z,5.40
2017-08-31T18:14:58.812Z,4.90
2017-08-31T18:17:26.525Z,5.60
2017-08-31T18:19:54.061Z,6.20
2017-08-31T18:22:21.613Z,7.00
2017-08-31T18:24:49.333Z,5.40
2017-08-31T18:27:16.956Z,6.00
2017-08-31T18:29:44.489Z,5.50
2017-08-31T18:32:12.015Z,5.80
2017-08-31T18:34:39.544Z,4.37
2017-08-31T18:37:07.324Z,5.20
2017-08-31T18:39:34.928Z,4.63
2017-08-31T18:42:02.441Z,4.27
2017-08-31T18:44:30.048Z,3.87
2017-08-31T18:46:57.557Z,3.90
2017-08-31T18:49:25.181Z,4.10
2017-08-31T18:51:52.841Z,4.80
2017-08-31T18:54:20.462Z,3.40
2017-08-31T18:56:48.110Z,4.87
2017-08-31T18:59:15.713Z,3.67
2017-08-31T19:01:43.249Z,4.27
2017-08-31T19:04:10.868Z,3.70
2017-08-31T19:06:38.448Z,4.23
2017-08-31T19:09:05.961Z,4.17
2017-08-31T19:11:39.241Z,4.23
2017-08-31T19:14:06.758Z,4.03
2017-08-31T19:16:45.451Z,4.33
2017-08-31T19:19:12.988Z,4.83
2017-08-31T19:22:00.028Z,4.50
2017-08-31T19:24:27.543Z,5.20
2017-08-31T19:27:01.289Z,4.63
2017-08-31T19:29:28.795Z,4.67
2017-08-31T19:31:58.246Z,5.60
2017-08-31T19:34:25.768Z,4.70
2017-08-31T19:37:03.408Z,4.57
2017-08-31T19:39:30.924Z,3.87
2017-08-31T19:41:58.472Z,4.27
2017-08-31T19:44:26.037Z,4.60
2017-08-31T19:46:58.685Z,4.70
2017-08-31T19:49:26.211Z,4.50
2017-08-31T19:51:53.752Z,4.33
2017-08-31T19:54:21.311Z,4.80
2017-08-31T19:56:48.888Z,5.73
2017-08-31T19:59:16.452Z,6.40
2017-08-31T20:01:43.992Z,6.20
2017-08-31T20:04:11.505Z,5.50
2017-08-31T20:06:39.045Z,6.43
2017-08-31T20:09:06.597Z,7.17
2017-08-31T20:11:34.922Z,6.93
2017-08-31T20:14:02.440Z,7.70
2017-08-31T20:16:29.967Z,8.77
2017-08-31T20:18:57.493Z,9.13
2017-08-31T20:21:25.020Z,8.27
2017-08-31T20:24:00.844Z,8.50
2017-08-31T20:26:28.387Z,9.47
2017-08-31T20:28:55.900Z,9.33
2017-08-31T20:31:23.437Z,9.80
2017-08-31T20:34:02.697Z,9.60
2017-08-31T20:36:30.243Z,9.70
2017-08-31T20:38:57.771Z,9.23
2017-08-31T20:41:25.293Z,8.90
2017-08-31T20:43:52.820Z,9.03
2017-08-31T20:46:20.342Z,10.37
2017-08-31T20:48:47.892Z,9.83
2017-08-31T20:51:15.406Z,9.47
2017-08-31T20:53:42.950Z,9.75
2017-08-31T20:56:10.467Z,9.00
2017-08-31T20:58:38.011Z,8.83
2017-08-31T21:01:05.516Z,8.23
2017-08-31T21:03:33.068Z,10.05
2017-08-31T21:06:00.611Z,8.55
2017-08-31T21:08:28.148Z,8.65
2017-08-31T21:10:55.667Z,8.57
2017-08-31T21:13:23.224Z,9.40
2017-08-31T21:15:50.739Z,9.50
2017-08-31T21:18:18.270Z,8.55
2017-08-31T21:20:45.779Z,9.50
2017-08-31T21:23:13.324Z,11.05
2017-08-31T21:25:40.841Z,9.65
2017-08-31T21:28:08.377Z,10.30
2017-08-31T21:30:35.916Z,9.30
2017-08-31T21:33:03.464Z,8.90
2017-08-31T21:35:30.981Z,8.90
2017-08-31T21:37:58.530Z,10.63
2017-08-31T21:40:26.049Z,11.33
2017-08-31T21:42:53.573Z,10.27
2017-08-31T21:45:21.116Z,9.93
2017-08-31T21:47:48.631Z,9.25
2017-08-31T21:50:16.932Z,9.73
2017-08-31T21:52:44.463Z,11.02
2017-08-31T21:55:12.002Z,10.95
2017-08-31T21:57:39.536Z,9.98
2017-08-31T22:00:07.076Z,10.38
2017-08-31T22:02:34.602Z,10.77
2017-08-31T22:05:03.034Z,10.63
2017-08-31T22:07:30.599Z,10.18
2017-08-31T22:09:58.157Z,12.27
2017-08-31T22:12:25.716Z,9.95
2017-08-31T22:14:53.286Z,10.20
2017-08-31T22:17:20.849Z,10.02
2017-08-31T22:19:48.442Z,10.57
2017-08-31T22:22:15.998Z,10.30
2017-08-31T22:24:44.296Z,9.63
2017-08-31T22:27:11.818Z,8.77
2017-08-31T22:29:39.370Z,8.90
2017-08-31T22:32:06.903Z,8.35
2017-08-31T22:34:34.442Z,8.85
2017-08-31T22:37:01.960Z,10.30
2017-08-31T22:39:29.521Z,8.30
2017-08-31T22:41:57.035Z,8.60
2017-08-31T22:44:24.540Z,8.27
2017-08-31T22:46:52.089Z,6.68
2017-08-31T22:49:20.175Z,6.97
2017-08-31T22:51:47.716Z,7.25
2017-08-31T22:54:21.233Z,7.20
2017-08-31T22:56:52.612Z,7.65
2017-08-31T22:59:20.135Z,6.80
2017-08-31T23:01:47.685Z,8.30
2017-08-31T23:04:15.313Z,5.97
2017-08-31T23:06:42.982Z,6.72
2017-08-31T23:09:10.500Z,5.85
2017-08-31T23:11:38.074Z,6.20
2017-08-31T23:14:05.593Z,7.22
2017-08-31T23:16:33.162Z,6.95
2017-08-31T23:19:00.682Z,6.55
2017-08-31T23:21:28.220Z,6.35
2017-08-31T23:23:55.741Z,6.40
2017-08-31T23:26:23.283Z,6.37
2017-08-31T23:28:50.801Z,6.25
2017-08-31T23:31:18.358Z,6.07
2017-08-31T23:33:45.876Z,6.65
2017-08-31T23:36:13.391Z,6.40
2017-08-31T23:38:40.939Z,7.20
2017-08-31T23:41:08.454Z,6.50
2017-08-31T23:43:35.992Z,6.40
2017-08-31T23:46:03.616Z,5.75
2017-08-31T23:48:31.140Z,6.03
2017-08-31T23:50:58.664Z,6.07
2017-08-31T23:53:26.213Z,6.55
2017-08-31T23:55:53.737Z,6.03
2017-08-31T23:58:21.271Z,6.05
